createdAt,value
2018-06-12T00:02:18.023Z,15.87
2018-06-12T00:04:53.401Z,23.73
2018-06-12T00:07:27.858Z,22.13
2018-06-12T00:10:02.226Z,20.10
2018-06-12T00:12:38.660Z,16.30
2018-06-12T00:15:12.941Z,16.43
2018-06-12T00:17:49.300Z,14.73
2018-06-12T00:20:22.393Z,13.57
2018-06-12T00:22:54.898Z,13.80
2018-06-12T00:25:27.482Z,12.50
2018-06-12T00:28:01.088Z,13.40
2018-06-12T00:30:34.007Z,12.10
2018-06-12T00:33:06.210Z,12.10
2018-06-12T00:35:39.869Z,12.97
2018-06-12T00:38:12.618Z,14.33
2018-06-12T00:40:45.771Z,14.87
2018-06-12T00:43:18.092Z,23.37
2018-06-12T00:45:50.400Z,20.57
2018-06-12T00:48:23.785Z,21.63
2018-06-12T00:50:56.199Z,20.77
2018-06-12T00:53:29.934Z,21.97
2018-06-12T00:56:03.825Z,20.83
2018-06-12T00:58:37.667Z,23.17
2018-06-12T01:01:15.063Z,26.40
2018-06-12T01:03:49.542Z,30.43
2018-06-12T01:06:24.488Z,33.57
2018-06-12T01:08:58.978Z,32.03
2018-06-12T01:11:36.605Z,37.27
2018-06-12T01:14:48.124Z,34.10
2018-06-12T01:17:42.165Z,32.53
2018-06-12T01:20:25.605Z,33.97
2018-06-12T01:23:07.226Z,30.47
2018-06-12T01:28:40.573Z,33.80
2018-06-12T01:31:18.950Z,34.20
2018-06-12T01:34:00.909Z,35.10
2018-06-12T01:36:42.338Z,44.53
2018-06-12T01:39:18.350Z,48.17
2018-06-12T01:42:22.524Z,38.10
2018-06-12T01:44:57.066Z,30.40
2018-06-12T01:51:29.712Z,26.13
2018-06-12T01:54:12.059Z,24.97
2018-06-12T01:58:56.882Z,25.50
2018-06-12T02:01:32.381Z,26.47
2018-06-12T02:04:35.392Z,28.87
2018-06-12T02:22:10.947Z,20.53
2018-06-12T02:25:04.822Z,17.50
2018-06-12T02:40:41.763Z,25.93
2018-06-12T02:46:39.225Z,34.33
2018-06-12T02:56:40.844Z,36.67
2018-06-12T02:59:40.854Z,38.27
2018-06-12T03:02:15.399Z,38.60
2018-06-12T03:04:49.188Z,37.47
2018-06-12T03:07:23.879Z,39.80
2018-06-12T03:09:56.368Z,38.37
2018-06-12T03:12:29.701Z,35.60
2018-06-12T03:15:04.094Z,38.40
2018-06-12T03:17:38.028Z,37.13
2018-06-12T03:20:11.191Z,37.93
2018-06-12T03:22:45.292Z,37.97
2018-06-12T03:25:19.105Z,37.33
2018-06-12T03:27:52.903Z,37.27
2018-06-12T03:30:29.605Z,38.27
2018-06-12T03:33:03.381Z,36.50
2018-06-12T03:35:35.812Z,36.27
2018-06-12T03:38:09.673Z,36.80
2018-06-12T03:40:42.997Z,39.00
2018-06-12T03:43:21.079Z,41.80
2018-06-12T03:46:01.070Z,38.43
2018-06-12T03:48:37.229Z,41.93
2018-06-12T03:51:10.603Z,39.17
2018-06-12T03:53:43.112Z,36.77
2018-06-12T03:56:17.494Z,37.03
2018-06-12T03:58:52.638Z,37.90
2018-06-12T04:01:25.185Z,34.67
2018-06-12T04:03:57.468Z,35.63
2018-06-12T04:06:32.199Z,35.50
2018-06-12T04:09:04.981Z,35.03
2018-06-12T04:11:40.051Z,32.80
2018-06-12T04:14:14.338Z,33.33
2018-06-12T04:16:46.929Z,35.53
2018-06-12T04:22:33.181Z,30.73
2018-06-12T04:29:11.522Z,41.13
2018-06-12T04:31:49.015Z,25.43
2018-06-12T04:37:54.692Z,30.37
2018-06-12T04:40:28.024Z,32.00
2018-06-12T04:43:00.562Z,27.30
2018-06-12T04:45:32.985Z,26.37
2018-06-12T04:48:05.518Z,29.47
2018-06-12T04:50:38.049Z,25.53
2018-06-12T04:53:10.939Z,20.67
2018-06-12T04:55:43.813Z,17.47
2018-06-12T04:58:16.362Z,19.70
2018-06-12T05:00:49.984Z,17.90
2018-06-12T05:03:55.543Z,17.57
2018-06-12T05:21:03.259Z,15.00
2018-06-12T05:44:38.514Z,22.03
2018-06-12T05:47:11.747Z,21.03
2018-06-12T05:49:44.516Z,22.43
2018-06-12T05:52:17.760Z,22.00
2018-06-12T05:54:55.281Z,22.10
2018-06-12T05:57:28.739Z,24.10
2018-06-12T06:00:01.497Z,24.67
2018-06-12T06:02:34.132Z,24.17
2018-06-12T06:05:10.269Z,23.77
2018-06-12T06:07:43.262Z,22.53
2018-06-12T06:10:16.779Z,20.70
2018-06-12T06:12:54.967Z,21.73
2018-06-12T06:15:28.389Z,21.10
2018-06-12T06:18:07.520Z,19.43
2018-06-12T06:20:39.955Z,19.90
2018-06-12T06:23:12.776Z,17.73
2018-06-12T06:25:46.112Z,16.50
2018-06-12T06:28:19.159Z,15.37
2018-06-12T06:31:01.194Z,17.17
2018-06-12T06:33:35.271Z,18.30
2018-06-12T06:36:07.968Z,16.47
2018-06-12T06:38:41.004Z,17.27
2018-06-12T06:41:14.176Z,17.73
2018-06-12T06:43:46.452Z,17.63
2018-06-12T06:46:23.364Z,18.57
2018-06-12T06:48:55.689Z,19.83
2018-06-12T06:51:28.536Z,19.13
2018-06-12T06:54:01.215Z,16.93
2018-06-12T06:56:33.884Z,16.93
2018-06-12T06:59:06.435Z,19.37
2018-06-12T07:01:39.995Z,22.47
2018-06-12T07:04:13.246Z,21.50
2018-06-12T07:06:47.385Z,21.90
2018-06-12T07:09:22.007Z,24.17
2018-06-12T07:11:56.029Z,25.70
2018-06-12T07:14:29.339Z,23.13
2018-06-12T07:17:01.798Z,24.67
2018-06-12T07:19:34.490Z,23.63
2018-06-12T07:22:08.831Z,23.83
2018-06-12T07:24:41.245Z,23.90
2018-06-12T07:27:15.386Z,25.40
2018-06-12T07:29:47.722Z,25.03
2018-06-12T07:32:20.493Z,19.73
2018-06-12T07:34:53.192Z,18.87
2018-06-12T07:37:25.940Z,18.27
2018-06-12T07:39:58.412Z,18.13
2018-06-12T07:42:31.133Z,18.57
2018-06-12T07:45:03.571Z,20.37
2018-06-12T07:47:36.494Z,20.17
2018-06-12T07:50:08.980Z,18.67
2018-06-12T07:52:42.458Z,17.83
2018-06-12T07:55:15.066Z,17.33
2018-06-12T07:57:47.797Z,17.60
2018-06-12T08:00:20.170Z,19.17
2018-06-12T08:02:52.948Z,19.63
2018-06-12T08:05:25.477Z,18.83
2018-06-12T08:08:01.804Z,19.30
2018-06-12T08:10:34.276Z,20.67
2018-06-12T08:13:06.921Z,19.77
2018-06-12T08:15:41.128Z,21.00
2018-06-12T08:18:13.814Z,21.57
2018-06-12T08:20:47.019Z,21.97
2018-06-12T08:23:20.952Z,23.80
2018-06-12T08:25:53.667Z,24.93
2018-06-12T08:28:30.184Z,24.57
2018-06-12T08:31:04.701Z,24.97
2018-06-12T08:33:38.198Z,25.23
2018-06-12T08:36:11.445Z,27.27
2018-06-12T08:38:44.003Z,28.33
2018-06-12T08:41:17.155Z,30.73
2018-06-12T08:43:54.876Z,32.33
2018-06-12T08:46:28.196Z,33.27
2018-06-12T08:49:35.267Z,33.37
2018-06-12T08:52:07.751Z,27.50
2018-06-12T08:54:40.365Z,28.43
2018-06-12T08:57:37.115Z,26.17
2018-06-12T09:00:10.183Z,23.50
2018-06-12T09:02:42.702Z,21.90
2018-06-12T09:05:16.034Z,21.97
2018-06-12T09:07:48.907Z,23.03
2018-06-12T09:10:22.470Z,24.30
2018-06-12T09:12:55.820Z,25.47
2018-06-12T09:15:28.765Z,26.07
2018-06-12T09:18:01.109Z,28.07
2018-06-12T09:20:35.082Z,29.47
2018-06-12T09:23:07.517Z,26.97
2018-06-12T09:25:40.353Z,28.30
2018-06-12T09:28:13.047Z,27.67
2018-06-12T09:30:45.975Z,29.00
2018-06-12T09:33:18.645Z,30.30
2018-06-12T09:35:52.060Z,29.53
2018-06-12T09:38:24.289Z,32.23
2018-06-12T09:40:56.845Z,33.23
2018-06-12T09:43:30.085Z,31.37
2018-06-12T09:46:08.139Z,35.67
2018-06-12T09:48:40.492Z,36.13
2018-06-12T09:51:13.883Z,38.13
2018-06-12T09:56:36.039Z,36.87
2018-06-12T09:59:09.500Z,34.50
2018-06-12T10:01:42.314Z,34.17
2018-06-12T10:04:14.651Z,33.63
2018-06-12T10:06:46.978Z,41.60
2018-06-12T10:09:19.463Z,44.90
2018-06-12T10:11:53.422Z,44.53
2018-06-12T10:14:25.927Z,46.43
2018-06-12T10:16:58.412Z,47.40
2018-06-12T10:19:33.189Z,47.17
2018-06-12T10:22:05.844Z,48.03
2018-06-12T10:24:38.141Z,43.53
2018-06-12T10:27:10.636Z,44.43
2018-06-12T10:29:43.367Z,43.23
2018-06-12T10:32:25.413Z,42.53
2018-06-12T10:34:58.587Z,43.43
2018-06-12T10:37:36.004Z,42.77
2018-06-12T10:40:08.756Z,43.33
2018-06-12T10:42:41.240Z,43.03
2018-06-12T10:45:16.307Z,40.87
2018-06-12T10:48:01.993Z,46.10
2018-06-12T10:50:34.572Z,47.80
2018-06-12T10:53:16.421Z,52.07
2018-06-12T10:55:48.851Z,52.33
2018-06-12T10:58:21.379Z,48.50
2018-06-12T11:00:53.777Z,46.07
2018-06-12T11:03:27.038Z,45.63
2018-06-12T11:05:59.297Z,53.47
2018-06-12T11:08:31.972Z,50.47
2018-06-12T11:11:04.402Z,56.57
2018-06-12T11:13:37.078Z,52.33
2018-06-12T11:16:09.555Z,53.87
2018-06-12T11:18:42.169Z,52.10
2018-06-12T11:21:14.741Z,47.63
2018-06-12T11:23:54.738Z,46.30
2018-06-12T11:26:27.148Z,47.83
2018-06-12T11:28:59.823Z,49.03
2018-06-12T11:31:34.667Z,39.77
2018-06-12T11:34:08.273Z,39.67
2018-06-12T11:36:43.294Z,41.23
2018-06-12T11:39:20.510Z,39.07
2018-06-12T11:42:06.725Z,35.73
2018-06-12T11:44:48.601Z,41.63
2018-06-12T11:47:51.339Z,37.67
2018-06-12T11:50:41.461Z,38.53
2018-06-12T11:57:21.467Z,38.97
2018-06-12T12:01:26.940Z,48.57
2018-06-12T12:24:25.765Z,54.83
2018-06-12T12:27:00.368Z,49.10
2018-06-12T12:29:52.013Z,53.73
2018-06-12T12:32:36.888Z,47.87
2018-06-12T12:44:02.356Z,33.77
2018-06-12T12:50:34.568Z,31.17
2018-06-12T12:53:08.077Z,30.17
2018-06-12T12:55:41.052Z,29.13
2018-06-12T12:58:21.904Z,27.53
2018-06-12T13:00:56.236Z,27.53
2018-06-12T13:03:36.482Z,26.93
2018-06-12T13:06:10.350Z,25.07
2018-06-12T13:08:43.687Z,24.30
2018-06-12T13:11:16.382Z,22.67
2018-06-12T13:13:50.923Z,22.07
2018-06-12T13:16:24.688Z,23.97
2018-06-12T13:19:08.218Z,21.07
2018-06-12T13:21:41.224Z,23.27
2018-06-12T13:24:18.369Z,22.20
2018-06-12T13:26:52.370Z,24.40
2018-06-12T13:29:25.064Z,25.83
2018-06-12T13:32:13.440Z,27.27
2018-06-12T13:37:28.727Z,39.57
2018-06-12T13:40:01.746Z,37.07
2018-06-12T13:42:35.709Z,38.10
2018-06-12T13:45:44.001Z,34.73
2018-06-12T13:48:21.851Z,47.03
2018-06-12T13:52:13.413Z,96.83
2018-06-12T13:54:53.052Z,64.53
2018-06-12T13:57:33.981Z,67.37
2018-06-12T14:00:11.011Z,53.70
2018-06-12T14:03:07.660Z,42.00
2018-06-12T14:10:48.943Z,40.43
2018-06-12T14:13:26.392Z,62.37
2018-06-12T14:16:02.124Z,67.80
2018-06-12T14:18:42.355Z,64.97
2018-06-12T14:24:24.227Z,61.37
2018-06-12T14:27:11.902Z,65.87
2018-06-12T14:29:44.766Z,60.90
2018-06-12T14:32:19.877Z,65.80
2018-06-12T14:38:55.001Z,61.27
2018-06-12T14:41:34.213Z,44.03
2018-06-12T14:44:09.087Z,40.03
2018-06-12T14:46:44.376Z,41.60
2018-06-12T14:49:19.620Z,45.17
2018-06-12T14:51:54.088Z,37.97
2018-06-12T14:54:29.190Z,32.07
2018-06-12T14:57:03.811Z,32.03
2018-06-12T14:59:40.591Z,25.37
2018-06-12T15:02:14.620Z,23.07
2018-06-12T15:04:48.304Z,22.73
2018-06-12T15:07:25.975Z,18.63
2018-06-12T15:10:08.470Z,18.53
2018-06-12T15:15:58.006Z,11.40
2018-06-12T15:18:30.718Z,12.53
2018-06-12T15:21:06.316Z,12.23
2018-06-12T15:23:45.021Z,10.57
2018-06-12T15:26:19.194Z,7.47
2018-06-12T15:28:54.848Z,8.43
2018-06-12T15:31:32.110Z,8.20
2018-06-12T15:34:08.675Z,8.50
2018-06-12T15:36:48.602Z,7.23
2018-06-12T15:39:59.108Z,7.13
2018-06-12T15:42:33.461Z,7.87
2018-06-12T15:45:08.870Z,8.17
2018-06-12T15:47:43.167Z,7.73
2018-06-12T15:50:34.949Z,7.03
2018-06-12T15:53:20.034Z,7.43
2018-06-12T15:55:58.417Z,6.70
2018-06-12T16:01:24.554Z,8.03
2018-06-12T16:16:36.809Z,7.43
2018-06-12T16:19:24.806Z,9.63
2018-06-12T16:22:15.195Z,10.47
2018-06-12T16:28:43.163Z,7.77
2018-06-12T16:32:26.165Z,6.57
2018-06-12T16:38:22.217Z,9.17
2018-06-12T16:41:00.116Z,8.00
2018-06-12T16:43:44.119Z,6.57
2018-06-12T16:46:31.390Z,7.07
2018-06-12T16:49:14.828Z,9.13
2018-06-12T16:52:01.498Z,7.00
2018-06-12T16:54:34.887Z,6.60
2018-06-12T16:57:08.401Z,6.85
2018-06-12T16:59:48.893Z,6.55
2018-06-12T17:02:23.775Z,7.90
2018-06-12T17:10:39.172Z,7.83
2018-06-12T17:13:13.347Z,7.50
2018-06-12T17:15:46.801Z,8.60
2018-06-12T17:18:42.093Z,9.00
2018-06-12T17:24:14.665Z,9.10
2018-06-12T17:29:50.942Z,8.87
2018-06-12T17:32:46.121Z,7.00
2018-06-12T17:35:25.842Z,7.50
2018-06-12T17:38:03.949Z,7.17
2018-06-12T17:40:57.828Z,7.20
2018-06-12T17:58:23.370Z,8.07
2018-06-12T18:01:01.339Z,8.17
2018-06-12T18:03:38.971Z,8.67
2018-06-12T18:09:17.311Z,9.17
2018-06-12T18:12:00.524Z,8.80
2018-06-12T18:14:35.090Z,9.30
2018-06-12T18:17:11.193Z,8.33
2018-06-12T18:19:49.934Z,10.23
2018-06-12T18:22:34.393Z,11.77
2018-06-12T18:25:11.075Z,11.07
2018-06-12T18:27:47.383Z,10.07
2018-06-12T18:30:25.981Z,9.68
2018-06-12T18:33:16.268Z,7.57
2018-06-12T18:35:53.905Z,6.58
2018-06-12T18:38:27.780Z,6.15
2018-06-12T18:41:14.991Z,7.35
2018-06-12T18:43:59.048Z,8.43
2018-06-12T18:46:41.298Z,7.70
2018-06-12T18:52:13.554Z,7.20
2018-06-12T18:55:05.817Z,7.93
2018-06-12T18:57:50.144Z,8.43
2018-06-12T19:00:25.293Z,7.97
2018-06-12T19:03:06.720Z,8.83
2018-06-12T19:05:56.079Z,8.97
2018-06-12T19:08:30.150Z,8.27
2018-06-12T19:11:03.271Z,8.87
2018-06-12T19:16:33.570Z,9.40
2018-06-12T19:19:46.473Z,12.47
2018-06-12T19:22:21.071Z,13.63
2018-06-12T19:25:02.152Z,14.80
2018-06-12T19:27:44.878Z,16.53
2018-06-12T19:30:24.319Z,16.47
2018-06-12T19:33:05.619Z,18.83
2018-06-12T19:35:43.969Z,20.83
2018-06-12T19:38:23.569Z,21.53
2018-06-12T19:41:22.096Z,22.00
2018-06-12T19:44:10.839Z,23.10
2018-06-12T19:47:03.038Z,24.57
2018-06-12T19:58:56.227Z,26.10
2018-06-12T20:01:42.295Z,27.10
2018-06-12T20:07:36.987Z,26.83
2018-06-12T20:10:32.223Z,28.67
2018-06-12T20:13:33.256Z,27.83
2018-06-12T20:19:20.339Z,42.73
2018-06-12T20:22:34.456Z,29.37
2018-06-12T20:25:20.244Z,13.57
2018-06-12T20:28:10.666Z,11.37
2018-06-12T20:31:00.418Z,11.43
2018-06-12T20:33:47.651Z,10.57
2018-06-12T20:44:01.697Z,11.70
2018-06-12T20:49:33.728Z,11.60
2018-06-12T21:00:52.610Z,18.00
2018-06-12T21:03:29.002Z,24.27
2018-06-12T21:06:15.275Z,19.37
2018-06-12T21:08:57.463Z,21.33
2018-06-12T21:11:35.573Z,21.83
2018-06-12T21:14:12.949Z,20.10
2018-06-12T21:16:52.108Z,19.67
2018-06-12T21:19:36.380Z,17.90
2018-06-12T21:25:15.805Z,20.60
2018-06-12T21:27:49.991Z,21.33
2018-06-12T21:33:24.276Z,23.43
2018-06-12T21:35:57.912Z,25.03
2018-06-12T21:38:43.202Z,21.07
2018-06-12T21:41:30.038Z,20.90
2018-06-12T21:44:10.876Z,19.63
2018-06-12T21:47:04.288Z,19.80
2018-06-12T21:56:36.301Z,16.37
2018-06-12T21:59:38.735Z,18.47
2018-06-12T22:02:53.053Z,17.77
2018-06-12T22:05:59.801Z,18.37
2018-06-12T22:08:39.158Z,15.97
2018-06-12T22:46:54.878Z,13.03
2018-06-12T22:51:22.732Z,13.00
2018-06-12T22:57:17.214Z,13.03
2018-06-12T22:59:49.383Z,14.77
2018-06-12T23:02:21.855Z,14.70
2018-06-12T23:04:56.743Z,16.17
2018-06-12T23:07:29.920Z,15.77
2018-06-12T23:10:09.942Z,16.40
2018-06-12T23:12:44.964Z,19.73
2018-06-12T23:15:20.183Z,21.63
2018-06-12T23:17:56.317Z,23.77
2018-06-12T23:20:38.433Z,24.10
2018-06-12T23:23:15.994Z,26.80
2018-06-12T23:26:04.843Z,30.13
2018-06-12T23:28:39.789Z,29.37
2018-06-12T23:31:13.189Z,27.37
2018-06-12T23:33:50.075Z,29.50
2018-06-12T23:36:31.401Z,31.17
2018-06-12T23:39:06.474Z,29.30
2018-06-12T23:41:40.996Z,29.63
2018-06-12T23:44:15.124Z,29.57
2018-06-12T23:46:48.684Z,31.77
2018-06-12T23:49:35.855Z,29.10
2018-06-12T23:52:22.902Z,29.67
2018-06-12T23:55:04.263Z,30.20
